sensor_id;sensor_type;location;lat;lon;timestamp;temperature;humidity
46552;DHT22;32278;51.810;4.712;2022-07-06T00:01:47;14.90;99.90
46552;DHT22;32278;51.810;4.712;2022-07-06T00:04:12;14.80;99.90
46552;DHT22;32278;51.810;4.712;2022-07-06T00:06:38;14.80;99.90
46552;DHT22;32278;51.810;4.712;2022-07-06T00:09:05;14.70;99.90
46552;DHT22;32278;51.810;4.712;2022-07-06T00:11:31;14.60;99.90
46552;DHT22;32278;51.810;4.712;2022-07-06T00:13:57;14.60;99.90
46552;DHT22;32278;51.810;4.712;2022-07-06T00:16:23;14.60;99.90
46552;DHT22;32278;51.810;4.712;2022-07-06T00:18:49;14.70;99.90
46552;DHT22;32278;51.810;4.712;2022-07-06T00:21:14;14.70;99.90
46552;DHT22;32278;51.810;4.712;2022-07-06T00:23:40;14.70;99.90
46552;DHT22;32278;51.810;4.712;2022-07-06T00:26:06;14.70;99.90
46552;DHT22;32278;51.810;4.712;2022-07-06T00:28:31;14.60;99.90
46552;DHT22;32278;51.810;4.712;2022-07-06T00:30:57;14.60;99.90
46552;DHT22;32278;51.810;4.712;2022-07-06T00:33:22;14.50;99.90
46552;DHT22;32278;51.810;4.712;2022-07-06T00:35:48;14.50;99.90
46552;DHT22;32278;51.810;4.712;2022-07-06T00:38:14;14.50;99.90
46552;DHT22;32278;51.810;4.712;2022-07-06T00:40:40;14.30;99.90
46552;DHT22;32278;51.810;4.712;2022-07-06T00:43:06;14.30;99.90
46552;DHT22;32278;51.810;4.712;2022-07-06T00:45:31;14.30;99.90
46552;DHT22;32278;51.810;4.712;2022-07-06T00:47:57;14.30;99.90
46552;DHT22;32278;51.810;4.712;2022-07-06T00:50:23;14.30;99.90
46552;DHT22;32278;51.810;4.712;2022-07-06T00:52:51;14.30;99.90
46552;DHT22;32278;51.810;4.712;2022-07-06T00:55:19;14.30;99.90
46552;DHT22;32278;51.810;4.712;2022-07-06T00:57:46;14.40;99.90
46552;DHT22;32278;51.810;4.712;2022-07-06T01:00:13;14.50;99.90
46552;DHT22;32278;51.810;4.712;2022-07-06T01:02:39;14.60;99.90
46552;DHT22;32278;51.810;4.712;2022-07-06T01:05:07;14.60;99.90
46552;DHT22;32278;51.810;4.712;2022-07-06T01:07:33;14.60;99.90
46552;DHT22;32278;51.810;4.712;2022-07-06T01:10:00;14.60;99.90
46552;DHT22;32278;51.810;4.712;2022-07-06T01:12:26;14.70;99.90
46552;DHT22;32278;51.810;4.712;2022-07-06T01:14:52;14.70;99.90
46552;DHT22;32278;51.810;4.712;2022-07-06T01:17:18;14.70;99.90
46552;DHT22;32278;51.810;4.712;2022-07-06T01:19:44;14.80;99.90
46552;DHT22;32278;51.810;4.712;2022-07-06T01:22:10;14.70;99.90
46552;DHT22;32278;51.810;4.712;2022-07-06T01:24:36;14.70;99.90
46552;DHT22;32278;51.810;4.712;2022-07-06T01:27:04;14.70;99.90
46552;DHT22;32278;51.810;4.712;2022-07-06T01:29:30;14.70;99.90
46552;DHT22;32278;51.810;4.712;2022-07-06T01:31:55;14.80;99.90
46552;DHT22;32278;51.810;4.712;2022-07-06T01:34:21;14.80;99.90
46552;DHT22;32278;51.810;4.712;2022-07-06T01:36:47;14.80;99.90
46552;DHT22;32278;51.810;4.712;2022-07-06T01:39:12;14.70;99.90
46552;DHT22;32278;51.810;4.712;2022-07-06T01:41:38;14.70;99.90
46552;DHT22;32278;51.810;4.712;2022-07-06T01:44:05;14.70;99.90
46552;DHT22;32278;51.810;4.712;2022-07-06T01:46:30;14.60;99.90
46552;DHT22;32278;51.810;4.712;2022-07-06T01:48:56;14.60;99.90
46552;DHT22;32278;51.810;4.712;2022-07-06T01:51:22;14.60;99.90
46552;DHT22;32278;51.810;4.712;2022-07-06T01:53:48;14.60;99.90
46552;DHT22;32278;51.810;4.712;2022-07-06T01:56:14;14.50;99.90
46552;DHT22;32278;51.810;4.712;2022-07-06T01:58:40;14.50;99.90
46552;DHT22;32278;51.810;4.712;2022-07-06T02:01:12;14.40;99.90
46552;DHT22;32278;51.810;4.712;2022-07-06T02:03:38;14.40;99.90
46552;DHT22;32278;51.810;4.712;2022-07-06T02:06:05;14.40;99.90
46552;DHT22;32278;51.810;4.712;2022-07-06T02:08:32;14.40;99.90
46552;DHT22;32278;51.810;4.712;2022-07-06T02:10:58;14.30;99.90
46552;DHT22;32278;51.810;4.712;2022-07-06T02:13:24;14.30;99.90
46552;DHT22;32278;51.810;4.712;2022-07-06T02:15:50;14.20;99.90
46552;DHT22;32278;51.810;4.712;2022-07-06T02:18:16;14.20;99.90
46552;DHT22;32278;51.810;4.712;2022-07-06T02:20:42;14.20;99.90
46552;DHT22;32278;51.810;4.712;2022-07-06T02:23:07;14.20;99.90
46552;DHT22;32278;51.810;4.712;2022-07-06T02:25:34;14.20;99.90
46552;DHT22;32278;51.810;4.712;2022-07-06T02:27:59;14.10;99.90
46552;DHT22;32278;51.810;4.712;2022-07-06T02:30:25;14.00;99.90
46552;DHT22;32278;51.810;4.712;2022-07-06T02:32:51;13.90;99.90
46552;DHT22;32278;51.810;4.712;2022-07-06T02:35:16;13.90;99.90
46552;DHT22;32278;51.810;4.712;2022-07-06T02:37:42;14.00;99.90
46552;DHT22;32278;51.810;4.712;2022-07-06T02:40:08;13.90;99.90
46552;DHT22;32278;51.810;4.712;2022-07-06T02:42:34;13.80;99.90
46552;DHT22;32278;51.810;4.712;2022-07-06T02:45:00;13.80;99.90
46552;DHT22;32278;51.810;4.712;2022-07-06T02:47:26;13.80;99.90
46552;DHT22;32278;51.810;4.712;2022-07-06T02:49:52;13.80;99.90
46552;DHT22;32278;51.810;4.712;2022-07-06T02:52:18;13.80;99.90
46552;DHT22;32278;51.810;4.712;2022-07-06T02:54:44;13.80;99.90
46552;DHT22;32278;51.810;4.712;2022-07-06T02:57:10;13.80;99.90
46552;DHT22;32278;51.810;4.712;2022-07-06T02:59:35;13.80;99.90
46552;DHT22;32278;51.810;4.712;2022-07-06T03:02:03;13.80;99.90
46552;DHT22;32278;51.810;4.712;2022-07-06T03:04:29;13.80;99.90
46552;DHT22;32278;51.810;4.712;2022-07-06T03:06:54;13.80;99.90
46552;DHT22;32278;51.810;4.712;2022-07-06T03:09:20;13.80;99.90
46552;DHT22;32278;51.810;4.712;2022-07-06T03:11:47;13.70;99.90
46552;DHT22;32278;51.810;4.712;2022-07-06T03:14:12;13.80;99.90
46552;DHT22;32278;51.810;4.712;2022-07-06T03:16:38;13.80;99.90
46552;DHT22;32278;51.810;4.712;2022-07-06T03:19:04;13.70;99.90
46552;DHT22;32278;51.810;4.712;2022-07-06T03:21:29;13.70;99.90
46552;DHT22;32278;51.810;4.712;2022-07-06T03:23:55;13.70;99.90
46552;DHT22;32278;51.810;4.712;2022-07-06T03:26:21;13.70;99.90
46552;DHT22;32278;51.810;4.712;2022-07-06T03:28:47;13.70;99.90
46552;DHT22;32278;51.810;4.712;2022-07-06T03:31:12;13.70;99.90
46552;DHT22;32278;51.810;4.712;2022-07-06T03:33:38;13.70;99.90
46552;DHT22;32278;51.810;4.712;2022-07-06T03:36:04;13.70;99.90
46552;DHT22;32278;51.810;4.712;2022-07-06T03:38:30;13.80;99.90
46552;DHT22;32278;51.810;4.712;2022-07-06T03:40:56;13.80;99.90
46552;DHT22;32278;51.810;4.712;2022-07-06T03:43:22;13.80;99.90
46552;DHT22;32278;51.810;4.712;2022-07-06T03:45:47;13.80;99.90
46552;DHT22;32278;51.810;4.712;2022-07-06T03:48:13;13.70;99.90
46552;DHT22;32278;51.810;4.712;2022-07-06T03:50:39;13.80;99.90
46552;DHT22;32278;51.810;4.712;2022-07-06T03:53:04;13.70;99.90
46552;DHT22;32278;51.810;4.712;2022-07-06T03:55:30;13.80;99.90
46552;DHT22;32278;51.810;4.712;2022-07-06T03:57:56;13.80;99.90
46552;DHT22;32278;51.810;4.712;2022-07-06T04:00:22;13.90;99.90
46552;DHT22;32278;51.810;4.712;2022-07-06T04:02:47;14.00;99.90
46552;DHT22;32278;51.810;4.712;2022-07-06T04:05:13;14.00;99.90
46552;DHT22;32278;51.810;4.712;2022-07-06T04:07:39;14.00;99.90
46552;DHT22;32278;51.810;4.712;2022-07-06T04:10:05;14.00;99.90
46552;DHT22;32278;51.810;4.712;2022-07-06T04:12:31;14.10;99.90
46552;DHT22;32278;51.810;4.712;2022-07-06T04:14:57;14.10;99.90
46552;DHT22;32278;51.810;4.712;2022-07-06T04:17:23;14.00;99.90
46552;DHT22;32278;51.810;4.712;2022-07-06T04:20:08;14.10;99.90
46552;DHT22;32278;51.810;4.712;2022-07-06T04:22:40;14.20;99.90
46552;DHT22;32278;51.810;4.712;2022-07-06T04:25:06;14.30;99.90
46552;DHT22;32278;51.810;4.712;2022-07-06T04:27:32;14.50;99.90
46552;DHT22;32278;51.810;4.712;2022-07-06T04:29:57;14.50;99.90
46552;DHT22;32278;51.810;4.712;2022-07-06T04:32:23;14.60;99.90
46552;DHT22;32278;51.810;4.712;2022-07-06T04:34:48;14.70;99.90
46552;DHT22;32278;51.810;4.712;2022-07-06T04:37:14;14.70;99.90
46552;DHT22;32278;51.810;4.712;2022-07-06T04:39:39;14.80;99.90
46552;DHT22;32278;51.810;4.712;2022-07-06T04:42:05;14.80;99.90
46552;DHT22;32278;51.810;4.712;2022-07-06T04:44:31;14.90;99.90
46552;DHT22;32278;51.810;4.712;2022-07-06T04:46:56;15.00;99.90
46552;DHT22;32278;51.810;4.712;2022-07-06T04:49:22;15.00;99.90
46552;DHT22;32278;51.810;4.712;2022-07-06T04:51:47;15.00;99.90
46552;DHT22;32278;51.810;4.712;2022-07-06T04:54:13;15.00;99.90
46552;DHT22;32278;51.810;4.712;2022-07-06T04:56:39;15.10;99.90
46552;DHT22;32278;51.810;4.712;2022-07-06T04:59:04;15.20;99.90
46552;DHT22;32278;51.810;4.712;2022-07-06T05:01:30;15.20;99.90
46552;DHT22;32278;51.810;4.712;2022-07-06T05:03:55;15.30;99.90
46552;DHT22;32278;51.810;4.712;2022-07-06T05:06:21;15.40;99.90
46552;DHT22;32278;51.810;4.712;2022-07-06T05:08:46;15.30;99.90
46552;DHT22;32278;51.810;4.712;2022-07-06T05:11:12;15.30;99.90
46552;DHT22;32278;51.810;4.712;2022-07-06T05:13:38;15.10;99.90
46552;DHT22;32278;51.810;4.712;2022-07-06T05:16:06;15.10;99.90
46552;DHT22;32278;51.810;4.712;2022-07-06T05:18:32;15.00;99.90
46552;DHT22;32278;51.810;4.712;2022-07-06T05:20:57;15.20;99.90
46552;DHT22;32278;51.810;4.712;2022-07-06T05:23:23;15.20;99.90
46552;DHT22;32278;51.810;4.712;2022-07-06T05:25:48;15.20;99.90
46552;DHT22;32278;51.810;4.712;2022-07-06T05:28:14;15.30;99.90
46552;DHT22;32278;51.810;4.712;2022-07-06T05:30:40;15.40;99.90
46552;DHT22;32278;51.810;4.712;2022-07-06T05:33:05;15.60;99.90
46552;DHT22;32278;51.810;4.712;2022-07-06T05:35:31;15.60;99.90
46552;DHT22;32278;51.810;4.712;2022-07-06T05:37:56;15.60;99.90
46552;DHT22;32278;51.810;4.712;2022-07-06T05:40:22;15.60;99.90
46552;DHT22;32278;51.810;4.712;2022-07-06T05:42:48;15.60;99.90
46552;DHT22;32278;51.810;4.712;2022-07-06T05:45:13;15.60;99.90
46552;DHT22;32278;51.810;4.712;2022-07-06T05:47:39;15.70;99.90
46552;DHT22;32278;51.810;4.712;2022-07-06T05:50:23;15.80;99.90
46552;DHT22;32278;51.810;4.712;2022-07-06T05:53:01;15.90;99.90
46552;DHT22;32278;51.810;4.712;2022-07-06T05:55:27;16.00;99.90
46552;DHT22;32278;51.810;4.712;2022-07-06T05:57:53;16.00;99.90
46552;DHT22;32278;51.810;4.712;2022-07-06T06:00:23;16.10;99.90
46552;DHT22;32278;51.810;4.712;2022-07-06T06:02:48;16.20;99.90
46552;DHT22;32278;51.810;4.712;2022-07-06T06:05:15;16.20;99.90
46552;DHT22;32278;51.810;4.712;2022-07-06T06:07:41;16.20;99.90
46552;DHT22;32278;51.810;4.712;2022-07-06T06:10:11;16.30;99.90
46552;DHT22;32278;51.810;4.712;2022-07-06T06:12:38;16.30;99.90
46552;DHT22;32278;51.810;4.712;2022-07-06T06:15:05;16.40;99.90
46552;DHT22;32278;51.810;4.712;2022-07-06T06:17:31;16.50;99.90
46552;DHT22;32278;51.810;4.712;2022-07-06T06:19:57;16.70;99.90
46552;DHT22;32278;51.810;4.712;2022-07-06T06:22:23;16.80;99.90
46552;DHT22;32278;51.810;4.712;2022-07-06T06:24:49;16.90;99.90
46552;DHT22;32278;51.810;4.712;2022-07-06T06:27:15;17.10;99.90
46552;DHT22;32278;51.810;4.712;2022-07-06T06:29:40;17.10;99.90
46552;DHT22;32278;51.810;4.712;2022-07-06T06:32:07;17.30;99.90
46552;DHT22;32278;51.810;4.712;2022-07-06T06:34:33;17.10;99.90
46552;DHT22;32278;51.810;4.712;2022-07-06T06:36:59;17.00;99.90
46552;DHT22;32278;51.810;4.712;2022-07-06T06:39:25;17.00;99.90
46552;DHT22;32278;51.810;4.712;2022-07-06T06:41:51;17.10;99.90
46552;DHT22;32278;51.810;4.712;2022-07-06T06:44:16;17.50;99.90
46552;DHT22;32278;51.810;4.712;2022-07-06T06:46:43;17.70;99.90
46552;DHT22;32278;51.810;4.712;2022-07-06T06:49:09;17.70;99.90
46552;DHT22;32278;51.810;4.712;2022-07-06T06:51:35;17.60;99.90
46552;DHT22;32278;51.810;4.712;2022-07-06T06:54:03;17.60;99.90
46552;DHT22;32278;51.810;4.712;2022-07-06T06:56:28;17.70;99.90
46552;DHT22;32278;51.810;4.712;2022-07-06T06:58:54;18.10;99.90
46552;DHT22;32278;51.810;4.712;2022-07-06T07:01:19;18.00;99.90
46552;DHT22;32278;51.810;4.712;2022-07-06T07:03:45;18.20;99.90
46552;DHT22;32278;51.810;4.712;2022-07-06T07:06:13;18.30;99.90
46552;DHT22;32278;51.810;4.712;2022-07-06T07:08:38;18.50;99.90
46552;DHT22;32278;51.810;4.712;2022-07-06T07:11:04;18.40;99.90
46552;DHT22;32278;51.810;4.712;2022-07-06T07:13:30;18.60;99.90
46552;DHT22;32278;51.810;4.712;2022-07-06T07:15:55;18.80;99.90
46552;DHT22;32278;51.810;4.712;2022-07-06T07:18:21;18.30;99.90
46552;DHT22;32278;51.810;4.712;2022-07-06T07:20:46;18.40;99.90
46552;DHT22;32278;51.810;4.712;2022-07-06T07:23:12;18.70;99.90
46552;DHT22;32278;51.810;4.712;2022-07-06T07:25:37;18.60;99.90
46552;DHT22;32278;51.810;4.712;2022-07-06T07:28:06;19.00;99.90
46552;DHT22;32278;51.810;4.712;2022-07-06T07:30:31;18.80;99.90
46552;DHT22;32278;51.810;4.712;2022-07-06T07:32:57;18.80;99.90
46552;DHT22;32278;51.810;4.712;2022-07-06T07:35:26;19.30;99.20
46552;DHT22;32278;51.810;4.712;2022-07-06T07:37:51;19.20;97.10
46552;DHT22;32278;51.810;4.712;2022-07-06T07:40:17;19.00;98.50
46552;DHT22;32278;51.810;4.712;2022-07-06T07:42:43;18.90;98.40
46552;DHT22;32278;51.810;4.712;2022-07-06T07:45:09;19.10;97.50
46552;DHT22;32278;51.810;4.712;2022-07-06T07:47:35;19.20;98.90
46552;DHT22;32278;51.810;4.712;2022-07-06T07:50:01;19.90;97.60
46552;DHT22;32278;51.810;4.712;2022-07-06T07:52:26;20.30;91.90
46552;DHT22;32278;51.810;4.712;2022-07-06T07:54:52;19.70;88.00
46552;DHT22;32278;51.810;4.712;2022-07-06T07:57:17;19.00;85.80
46552;DHT22;32278;51.810;4.712;2022-07-06T07:59:43;19.40;90.90
46552;DHT22;32278;51.810;4.712;2022-07-06T08:02:09;19.90;89.00
46552;DHT22;32278;51.810;4.712;2022-07-06T08:04:34;20.10;68.30
46552;DHT22;32278;51.810;4.712;2022-07-06T08:07:00;20.00;61.50
46552;DHT22;32278;51.810;4.712;2022-07-06T08:09:26;20.20;64.20
46552;DHT22;32278;51.810;4.712;2022-07-06T08:11:51;19.70;39.20
46552;DHT22;32278;51.810;4.712;2022-07-06T08:14:17;19.30;33.80
46552;DHT22;32278;51.810;4.712;2022-07-06T08:16:43;19.50;38.00
46552;DHT22;32278;51.810;4.712;2022-07-06T08:19:09;19.30;28.70
46552;DHT22;32278;51.810;4.712;2022-07-06T08:21:35;19.50;33.80
46552;DHT22;32278;51.810;4.712;2022-07-06T08:24:01;20.00;33.50
46552;DHT22;32278;51.810;4.712;2022-07-06T08:26:27;20.40;35.10
46552;DHT22;32278;51.810;4.712;2022-07-06T08:28:53;21.00;43.70
46552;DHT22;32278;51.810;4.712;2022-07-06T08:31:18;20.90;25.70
46552;DHT22;32278;51.810;4.712;2022-07-06T08:33:44;20.70;29.80
46552;DHT22;32278;51.810;4.712;2022-07-06T08:36:10;20.60;27.50
46552;DHT22;32278;51.810;4.712;2022-07-06T08:38:35;21.00;20.80
46552;DHT22;32278;51.810;4.712;2022-07-06T08:41:02;20.90;10.70
46552;DHT22;32278;51.810;4.712;2022-07-06T08:43:32;21.10;6.50
46552;DHT22;32278;51.810;4.712;2022-07-06T08:45:58;20.60;11.90
46552;DHT22;32278;51.810;4.712;2022-07-06T08:48:25;20.20;7.70
46552;DHT22;32278;51.810;4.712;2022-07-06T08:50:54;20.20;15.60
46552;DHT22;32278;51.810;4.712;2022-07-06T08:53:20;20.40;16.80
46552;DHT22;32278;51.810;4.712;2022-07-06T08:55:48;19.80;21.90
46552;DHT22;32278;51.810;4.712;2022-07-06T08:58:14;19.50;22.20
46552;DHT22;32278;51.810;4.712;2022-07-06T09:00:41;19.50;31.80
46552;DHT22;32278;51.810;4.712;2022-07-06T09:03:08;19.90;29.80
46552;DHT22;32278;51.810;4.712;2022-07-06T09:05:36;20.50;22.90
46552;DHT22;32278;51.810;4.712;2022-07-06T09:08:03;20.90;9.60
46552;DHT22;32278;51.810;4.712;2022-07-06T09:10:28;21.00;1.00
46552;DHT22;32278;51.810;4.712;2022-07-06T09:13:02;21.20;1.00
46552;DHT22;32278;51.810;4.712;2022-07-06T09:15:28;21.40;1.00
46552;DHT22;32278;51.810;4.712;2022-07-06T09:17:55;21.40;1.00
46552;DHT22;32278;51.810;4.712;2022-07-06T09:20:22;21.20;1.00
46552;DHT22;32278;51.810;4.712;2022-07-06T09:22:48;21.40;1.00
46552;DHT22;32278;51.810;4.712;2022-07-06T09:25:15;21.20;1.00
46552;DHT22;32278;51.810;4.712;2022-07-06T09:27:43;21.00;1.00
46552;DHT22;32278;51.810;4.712;2022-07-06T09:30:14;20.70;1.00
46552;DHT22;32278;51.810;4.712;2022-07-06T09:32:45;20.70;3.80
46552;DHT22;32278;51.810;4.712;2022-07-06T09:35:36;20.40;1.00
46552;DHT22;32278;51.810;4.712;2022-07-06T09:38:08;20.70;1.00
46552;DHT22;32278;51.810;4.712;2022-07-06T09:40:35;21.00;1.10
46552;DHT22;32278;51.810;4.712;2022-07-06T09:45:35;21.10;1.00
46552;DHT22;32278;51.810;4.712;2022-07-06T09:48:28;21.20;1.00
46552;DHT22;32278;51.810;4.712;2022-07-06T09:50:58;21.30;1.00
46552;DHT22;32278;51.810;4.712;2022-07-06T09:53:26;20.70;1.00
46552;DHT22;32278;51.810;4.712;2022-07-06T09:55:57;20.80;1.00
46552;DHT22;32278;51.810;4.712;2022-07-06T09:58:27;20.90;1.00
46552;DHT22;32278;51.810;4.712;2022-07-06T10:00:53;20.70;1.00
46552;DHT22;32278;51.810;4.712;2022-07-06T10:03:19;20.70;4.80
46552;DHT22;32278;51.810;4.712;2022-07-06T10:05:46;20.20;4.20
46552;DHT22;32278;51.810;4.712;2022-07-06T10:08:13;20.00;12.60
46552;DHT22;32278;51.810;4.712;2022-07-06T10:10:40;20.50;13.00
46552;DHT22;32278;51.810;4.712;2022-07-06T10:13:07;20.90;1.00
46552;DHT22;32278;51.810;4.712;2022-07-06T10:15:35;20.90;1.00
46552;DHT22;32278;51.810;4.712;2022-07-06T10:18:04;20.80;1.00
46552;DHT22;32278;51.810;4.712;2022-07-06T10:20:32;21.20;1.00
46552;DHT22;32278;51.810;4.712;2022-07-06T10:23:00;21.90;1.00
46552;DHT22;32278;51.810;4.712;2022-07-06T10:25:27;22.20;1.00
46552;DHT22;32278;51.810;4.712;2022-07-06T10:27:53;22.10;1.00
46552;DHT22;32278;51.810;4.712;2022-07-06T10:30:20;21.80;1.00
46552;DHT22;32278;51.810;4.712;2022-07-06T10:32:48;21.70;1.00
46552;DHT22;32278;51.810;4.712;2022-07-06T10:35:16;21.70;1.00
46552;DHT22;32278;51.810;4.712;2022-07-06T10:37:44;21.40;1.00
46552;DHT22;32278;51.810;4.712;2022-07-06T10:40:10;22.00;1.00
46552;DHT22;32278;51.810;4.712;2022-07-06T10:42:59;22.10;1.00
46552;DHT22;32278;51.810;4.712;2022-07-06T10:50:41;22.70;1.00
46552;DHT22;32278;51.810;4.712;2022-07-06T10:53:11;22.90;1.00
46552;DHT22;32278;51.810;4.712;2022-07-06T10:55:46;23.20;1.00
46552;DHT22;32278;51.810;4.712;2022-07-06T10:58:35;23.20;1.00
46552;DHT22;32278;51.810;4.712;2022-07-06T11:01:01;23.50;1.00
46552;DHT22;32278;51.810;4.712;2022-07-06T11:03:48;23.60;1.00
46552;DHT22;32278;51.810;4.712;2022-07-06T11:06:19;24.10;1.00
46552;DHT22;32278;51.810;4.712;2022-07-06T11:08:57;24.00;1.00
46552;DHT22;32278;51.810;4.712;2022-07-06T11:11:37;23.30;1.00
46552;DHT22;32278;51.810;4.712;2022-07-06T11:14:14;22.50;1.00
46552;DHT22;32278;51.810;4.712;2022-07-06T11:17:01;23.10;1.00
46552;DHT22;32278;51.810;4.712;2022-07-06T11:19:27;23.80;1.00
46552;DHT22;32278;51.810;4.712;2022-07-06T11:21:58;23.70;1.00
46552;DHT22;32278;51.810;4.712;2022-07-06T11:24:32;24.20;1.00
46552;DHT22;32278;51.810;4.712;2022-07-06T11:26:59;24.40;1.00
46552;DHT22;32278;51.810;4.712;2022-07-06T11:29:27;24.20;1.00
46552;DHT22;32278;51.810;4.712;2022-07-06T11:31:57;23.60;1.00
46552;DHT22;32278;51.810;4.712;2022-07-06T11:34:28;23.30;1.00
46552;DHT22;32278;51.810;4.712;2022-07-06T11:36:56;23.80;1.00
46552;DHT22;32278;51.810;4.712;2022-07-06T11:39:22;24.30;1.00
46552;DHT22;32278;51.810;4.712;2022-07-06T11:41:48;24.30;1.00
46552;DHT22;32278;51.810;4.712;2022-07-06T11:44:14;24.70;1.00
46552;DHT22;32278;51.810;4.712;2022-07-06T11:46:39;24.30;1.00
46552;DHT22;32278;51.810;4.712;2022-07-06T11:49:07;23.80;1.00
46552;DHT22;32278;51.810;4.712;2022-07-06T11:51:38;23.70;1.00
46552;DHT22;32278;51.810;4.712;2022-07-06T11:54:12;24.10;1.00
46552;DHT22;32278;51.810;4.712;2022-07-06T11:56:50;23.80;1.00
46552;DHT22;32278;51.810;4.712;2022-07-06T11:59:30;24.10;1.00
46552;DHT22;32278;51.810;4.712;2022-07-06T12:02:04;24.70;1.00
46552;DHT22;32278;51.810;4.712;2022-07-06T12:04:31;25.00;1.00
46552;DHT22;32278;51.810;4.712;2022-07-06T12:07:01;24.90;1.00
46552;DHT22;32278;51.810;4.712;2022-07-06T12:09:34;24.50;1.00
46552;DHT22;32278;51.810;4.712;2022-07-06T12:12:01;24.60;1.00
46552;DHT22;32278;51.810;4.712;2022-07-06T12:14:29;24.80;1.00
46552;DHT22;32278;51.810;4.712;2022-07-06T12:16:55;24.90;1.00
46552;DHT22;32278;51.810;4.712;2022-07-06T12:19:23;25.00;1.00
46552;DHT22;32278;51.810;4.712;2022-07-06T12:21:50;24.70;1.00
46552;DHT22;32278;51.810;4.712;2022-07-06T12:24:26;24.30;1.00
46552;DHT22;32278;51.810;4.712;2022-07-06T12:26:53;24.60;1.00
46552;DHT22;32278;51.810;4.712;2022-07-06T12:29:19;24.10;1.00
46552;DHT22;32278;51.810;4.712;2022-07-06T12:34:20;24.40;1.00
46552;DHT22;32278;51.810;4.712;2022-07-06T12:39:16;23.70;1.00
46552;DHT22;32278;51.810;4.712;2022-07-06T12:41:53;23.60;1.00
46552;DHT22;32278;51.810;4.712;2022-07-06T12:44:28;23.80;1.00
46552;DHT22;32278;51.810;4.712;2022-07-06T12:47:08;23.60;1.00
46552;DHT22;32278;51.810;4.712;2022-07-06T12:49:35;23.30;1.00
46552;DHT22;32278;51.810;4.712;2022-07-06T12:54:37;23.30;1.00
46552;DHT22;32278;51.810;4.712;2022-07-06T12:57:23;23.00;1.00
46552;DHT22;32278;51.810;4.712;2022-07-06T13:02:35;22.90;1.00
46552;DHT22;32278;51.810;4.712;2022-07-06T13:05:11;22.90;1.00
46552;DHT22;32278;51.810;4.712;2022-07-06T13:07:44;22.90;1.00
46552;DHT22;32278;51.810;4.712;2022-07-06T13:10:11;23.20;1.00
46552;DHT22;32278;51.810;4.712;2022-07-06T13:12:38;23.50;1.00
46552;DHT22;32278;51.810;4.712;2022-07-06T13:15:05;23.70;1.00
46552;DHT22;32278;51.810;4.712;2022-07-06T13:17:32;23.70;1.00
46552;DHT22;32278;51.810;4.712;2022-07-06T13:19:58;23.30;1.00
46552;DHT22;32278;51.810;4.712;2022-07-06T13:22:23;23.10;1.00
46552;DHT22;32278;51.810;4.712;2022-07-06T13:24:49;23.40;1.00
46552;DHT22;32278;51.810;4.712;2022-07-06T13:27:15;23.60;1.00
46552;DHT22;32278;51.810;4.712;2022-07-06T13:29:40;23.50;1.00
46552;DHT22;32278;51.810;4.712;2022-07-06T13:32:06;23.30;1.00
46552;DHT22;32278;51.810;4.712;2022-07-06T13:34:32;23.40;1.00
46552;DHT22;32278;51.810;4.712;2022-07-06T13:36:58;23.40;1.00
46552;DHT22;32278;51.810;4.712;2022-07-06T13:39:24;23.20;1.00
46552;DHT22;32278;51.810;4.712;2022-07-06T13:41:53;23.10;7.10
46552;DHT22;32278;51.810;4.712;2022-07-06T13:44:19;23.10;13.70
46552;DHT22;32278;51.810;4.712;2022-07-06T13:46:44;23.00;6.90
46552;DHT22;32278;51.810;4.712;2022-07-06T13:49:10;22.90;16.00
46552;DHT22;32278;51.810;4.712;2022-07-06T13:51:36;22.60;24.90
46552;DHT22;32278;51.810;4.712;2022-07-06T13:54:02;22.70;32.60
46552;DHT22;32278;51.810;4.712;2022-07-06T13:56:28;22.80;33.40
46552;DHT22;32278;51.810;4.712;2022-07-06T13:58:55;22.70;31.60
46552;DHT22;32278;51.810;4.712;2022-07-06T14:01:21;22.70;39.30
46552;DHT22;32278;51.810;4.712;2022-07-06T14:03:47;22.70;44.10
46552;DHT22;32278;51.810;4.712;2022-07-06T14:06:12;22.90;42.10
46552;DHT22;32278;51.810;4.712;2022-07-06T14:08:40;22.80;35.70
46552;DHT22;32278;51.810;4.712;2022-07-06T14:11:07;22.50;44.20
46552;DHT22;32278;51.810;4.712;2022-07-06T14:13:34;22.30;50.60
46552;DHT22;32278;51.810;4.712;2022-07-06T14:16:00;22.30;52.20
46552;DHT22;32278;51.810;4.712;2022-07-06T14:18:26;22.10;59.60
46552;DHT22;32278;51.810;4.712;2022-07-06T14:20:52;22.00;69.60
46552;DHT22;32278;51.810;4.712;2022-07-06T14:23:19;22.00;79.00
46552;DHT22;32278;51.810;4.712;2022-07-06T14:25:45;21.90;83.20
46552;DHT22;32278;51.810;4.712;2022-07-06T14:28:12;21.80;84.90
46552;DHT22;32278;51.810;4.712;2022-07-06T14:30:42;21.70;88.20
46552;DHT22;32278;51.810;4.712;2022-07-06T14:33:10;21.60;88.90
46552;DHT22;32278;51.810;4.712;2022-07-06T14:35:42;21.70;90.10
46552;DHT22;32278;51.810;4.712;2022-07-06T14:38:08;21.90;85.10
46552;DHT22;32278;51.810;4.712;2022-07-06T14:40:36;22.10;83.20
46552;DHT22;32278;51.810;4.712;2022-07-06T14:43:02;22.00;79.50
46552;DHT22;32278;51.810;4.712;2022-07-06T14:45:28;22.10;76.80
46552;DHT22;32278;51.810;4.712;2022-07-06T14:47:55;21.80;77.70
46552;DHT22;32278;51.810;4.712;2022-07-06T14:50:21;21.90;79.90
46552;DHT22;32278;51.810;4.712;2022-07-06T14:52:50;22.00;75.60
46552;DHT22;32278;51.810;4.712;2022-07-06T14:55:17;21.70;74.50
46552;DHT22;32278;51.810;4.712;2022-07-06T14:57:43;21.50;80.80
46552;DHT22;32278;51.810;4.712;2022-07-06T15:00:09;21.50;82.50
46552;DHT22;32278;51.810;4.712;2022-07-06T15:02:35;21.50;82.70
46552;DHT22;32278;51.810;4.712;2022-07-06T15:05:01;21.60;84.50
46552;DHT22;32278;51.810;4.712;2022-07-06T15:07:26;21.70;86.40
46552;DHT22;32278;51.810;4.712;2022-07-06T15:09:52;21.70;88.10
46552;DHT22;32278;51.810;4.712;2022-07-06T15:12:18;21.90;87.10
46552;DHT22;32278;51.810;4.712;2022-07-06T15:14:43;22.00;84.50
46552;DHT22;32278;51.810;4.712;2022-07-06T15:17:09;22.10;86.20
46552;DHT22;32278;51.810;4.712;2022-07-06T15:19:35;22.20;86.60
46552;DHT22;32278;51.810;4.712;2022-07-06T15:22:00;22.20;87.60
46552;DHT22;32278;51.810;4.712;2022-07-06T15:24:26;22.30;86.80
46552;DHT22;32278;51.810;4.712;2022-07-06T15:26:52;22.30;84.80
46552;DHT22;32278;51.810;4.712;2022-07-06T15:29:18;22.10;85.30
46552;DHT22;32278;51.810;4.712;2022-07-06T15:31:43;21.90;88.60
46552;DHT22;32278;51.810;4.712;2022-07-06T15:34:09;22.10;87.50
46552;DHT22;32278;51.810;4.712;2022-07-06T15:36:35;21.80;85.50
46552;DHT22;32278;51.810;4.712;2022-07-06T15:39:01;21.50;84.80
46552;DHT22;32278;51.810;4.712;2022-07-06T15:41:27;21.30;81.10
46552;DHT22;32278;51.810;4.712;2022-07-06T15:43:53;21.40;71.90
46552;DHT22;32278;51.810;4.712;2022-07-06T15:46:19;21.60;63.20
46552;DHT22;32278;51.810;4.712;2022-07-06T15:48:45;21.80;53.90
46552;DHT22;32278;51.810;4.712;2022-07-06T15:51:10;21.90;51.50
46552;DHT22;32278;51.810;4.712;2022-07-06T15:53:36;22.00;56.30